createdAt,value
2022-07-28T00:02:40.228Z,13
2022-07-28T00:32:32.488Z,13
2022-07-28T01:02:30.298Z,13
2022-07-28T01:32:30.525Z,13
2022-07-28T02:02:28.122Z,13
2022-07-28T02:32:28.802Z,13
2022-07-28T03:02:28.953Z,13
2022-07-28T03:32:29.164Z,13
2022-07-28T04:02:23.341Z,15
2022-07-28T04:32:27.988Z,13
2022-07-28T05:02:25.714Z,13
2022-07-28T05:32:30.918Z,14
2022-07-28T06:02:36.500Z,20
2022-07-28T06:32:35.068Z,13
2022-07-28T07:02:36.712Z,15
2022-07-28T07:32:40.878Z,15
2022-07-28T08:02:44.864Z,16
2022-07-28T08:32:47.512Z,16
2022-07-28T09:04:04.517Z,17
2022-07-28T09:34:04.488Z,17
2022-07-28T10:04:10.771Z,20
2022-07-28T10:34:11.067Z,24
2022-07-28T11:04:13.709Z,49
2022-07-28T11:34:17.746Z,23
2022-07-28T12:04:20.769Z,32
2022-07-28T12:34:25.206Z,25
2022-07-28T13:04:25.473Z,24
2022-07-28T13:34:29.011Z,24
2022-07-28T14:04:34.441Z,24
2022-07-28T14:34:42.345Z,23
2022-07-28T15:04:47.328Z,23
2022-07-28T15:34:51.918Z,23
2022-07-28T16:04:48.486Z,23
2022-07-28T16:34:57.280Z,26
2022-07-28T17:05:02.564Z,24
2022-07-28T17:35:05.690Z,24
2022-07-28T18:05:02.248Z,24
2022-07-28T18:35:01.364Z,23
2022-07-28T19:05:01.446Z,24
2022-07-28T19:35:02.895Z,24
2022-07-28T20:35:00.116Z,23
2022-07-28T21:04:58.756Z,24
2022-07-28T21:35:03.793Z,24
2022-07-28T22:05:02.312Z,24
2022-07-28T22:35:02.721Z,24
2022-07-28T23:05:00.839Z,23
2022-07-28T23:35:00.197Z,23
